sensor_id;sensor_type;location;lat;lon;timestamp;P1;durP1;ratioP1;P2;durP2;ratioP2
62796;SDS011;48839;48.546;-4.178;2023-05-14T00:01:15;28.27;;;14.73;;
62796;SDS011;48839;48.546;-4.178;2023-05-14T00:03:41;31.80;;;15.90;;
62796;SDS011;48839;48.546;-4.178;2023-05-14T00:06:07;25.75;;;14.63;;
62796;SDS011;48839;48.546;-4.178;2023-05-14T00:08:34;33.63;;;15.30;;
62796;SDS011;48839;48.546;-4.178;2023-05-14T00:11:00;27.95;;;14.88;;
62796;SDS011;48839;48.546;-4.178;2023-05-14T00:13:26;27.92;;;14.90;;
62796;SDS011;48839;48.546;-4.178;2023-05-14T00:15:52;29.90;;;14.73;;
62796;SDS011;48839;48.546;-4.178;2023-05-14T00:18:18;31.08;;;15.77;;
62796;SDS011;48839;48.546;-4.178;2023-05-14T00:20:44;31.73;;;16.42;;
62796;SDS011;48839;48.546;-4.178;2023-05-14T00:23:10;36.72;;;15.73;;
62796;SDS011;48839;48.546;-4.178;2023-05-14T00:25:36;34.80;;;16.48;;
62796;SDS011;48839;48.546;-4.178;2023-05-14T00:28:02;30.92;;;14.65;;
62796;SDS011;48839;48.546;-4.178;2023-05-14T00:30:28;26.70;;;13.85;;
62796;SDS011;48839;48.546;-4.178;2023-05-14T00:32:54;31.33;;;14.40;;
62796;SDS011;48839;48.546;-4.178;2023-05-14T00:35:20;31.40;;;15.15;;
62796;SDS011;48839;48.546;-4.178;2023-05-14T00:37:47;29.50;;;13.82;;
62796;SDS011;48839;48.546;-4.178;2023-05-14T00:40:13;24.98;;;13.82;;
62796;SDS011;48839;48.546;-4.178;2023-05-14T00:42:39;25.58;;;13.27;;
62796;SDS011;48839;48.546;-4.178;2023-05-14T00:45:05;27.63;;;14.48;;
62796;SDS011;48839;48.546;-4.178;2023-05-14T00:47:31;29.90;;;13.55;;
62796;SDS011;48839;48.546;-4.178;2023-05-14T00:49:59;27.30;;;14.73;;
62796;SDS011;48839;48.546;-4.178;2023-05-14T00:52:25;25.20;;;13.77;;
62796;SDS011;48839;48.546;-4.178;2023-05-14T00:54:51;29.33;;;14.38;;
62796;SDS011;48839;48.546;-4.178;2023-05-14T00:57:18;29.65;;;14.63;;
62796;SDS011;48839;48.546;-4.178;2023-05-14T00:59:46;27.75;;;14.90;;
62796;SDS011;48839;48.546;-4.178;2023-05-14T01:02:12;28.40;;;14.85;;
62796;SDS011;48839;48.546;-4.178;2023-05-14T01:04:38;26.98;;;13.40;;
62796;SDS011;48839;48.546;-4.178;2023-05-14T01:09:35;25.42;;;14.00;;
62796;SDS011;48839;48.546;-4.178;2023-05-14T01:12:18;32.97;;;14.43;;
62796;SDS011;48839;48.546;-4.178;2023-05-14T01:17:13;27.00;;;13.63;;
62796;SDS011;48839;48.546;-4.178;2023-05-14T01:19:44;32.58;;;15.32;;
62796;SDS011;48839;48.546;-4.178;2023-05-14T01:22:11;24.73;;;13.93;;
62796;SDS011;48839;48.546;-4.178;2023-05-14T01:24:38;24.60;;;13.68;;
62796;SDS011;48839;48.546;-4.178;2023-05-14T01:27:17;25.90;;;13.93;;
62796;SDS011;48839;48.546;-4.178;2023-05-14T01:29:52;27.92;;;12.27;;
62796;SDS011;48839;48.546;-4.178;2023-05-14T01:32:21;24.52;;;13.05;;
62796;SDS011;48839;48.546;-4.178;2023-05-14T01:34:48;24.15;;;12.20;;
62796;SDS011;48839;48.546;-4.178;2023-05-14T01:37:15;24.17;;;12.73;;
62796;SDS011;48839;48.546;-4.178;2023-05-14T01:39:42;26.35;;;13.73;;
62796;SDS011;48839;48.546;-4.178;2023-05-14T01:42:09;26.17;;;14.18;;
62796;SDS011;48839;48.546;-4.178;2023-05-14T01:44:35;31.27;;;13.25;;
62796;SDS011;48839;48.546;-4.178;2023-05-14T01:47:01;23.52;;;13.57;;
62796;SDS011;48839;48.546;-4.178;2023-05-14T01:49:27;22.90;;;11.93;;
62796;SDS011;48839;48.546;-4.178;2023-05-14T01:51:53;27.73;;;13.65;;
62796;SDS011;48839;48.546;-4.178;2023-05-14T01:54:19;26.38;;;13.05;;
62796;SDS011;48839;48.546;-4.178;2023-05-14T01:56:45;22.85;;;12.32;;
62796;SDS011;48839;48.546;-4.178;2023-05-14T01:59:11;22.67;;;11.98;;
62796;SDS011;48839;48.546;-4.178;2023-05-14T02:01:37;22.98;;;13.05;;
62796;SDS011;48839;48.546;-4.178;2023-05-14T02:04:03;23.77;;;13.88;;
62796;SDS011;48839;48.546;-4.178;2023-05-14T02:06:29;27.13;;;13.13;;
62796;SDS011;48839;48.546;-4.178;2023-05-14T02:08:56;24.08;;;12.10;;
62796;SDS011;48839;48.546;-4.178;2023-05-14T02:11:22;18.25;;;10.52;;
62796;SDS011;48839;48.546;-4.178;2023-05-14T02:13:48;19.67;;;9.52;;
62796;SDS011;48839;48.546;-4.178;2023-05-14T02:16:14;60.83;;;13.07;;
62796;SDS011;48839;48.546;-4.178;2023-05-14T02:18:40;17.27;;;9.27;;
62796;SDS011;48839;48.546;-4.178;2023-05-14T02:21:06;19.88;;;10.73;;
62796;SDS011;48839;48.546;-4.178;2023-05-14T02:23:32;20.50;;;11.15;;
62796;SDS011;48839;48.546;-4.178;2023-05-14T02:25:58;21.77;;;10.68;;
62796;SDS011;48839;48.546;-4.178;2023-05-14T02:28:24;52.45;;;12.18;;
62796;SDS011;48839;48.546;-4.178;2023-05-14T02:30:50;49.38;;;11.20;;
62796;SDS011;48839;48.546;-4.178;2023-05-14T02:33:16;29.70;;;9.60;;
62796;SDS011;48839;48.546;-4.178;2023-05-14T02:35:42;29.92;;;10.43;;
62796;SDS011;48839;48.546;-4.178;2023-05-14T02:38:08;30.05;;;12.35;;
62796;SDS011;48839;48.546;-4.178;2023-05-14T02:40:35;27.25;;;11.95;;
62796;SDS011;48839;48.546;-4.178;2023-05-14T02:43:01;22.00;;;11.50;;
62796;SDS011;48839;48.546;-4.178;2023-05-14T02:45:27;19.77;;;11.65;;
62796;SDS011;48839;48.546;-4.178;2023-05-14T02:47:53;19.95;;;10.88;;
62796;SDS011;48839;48.546;-4.178;2023-05-14T02:50:19;22.45;;;11.43;;
62796;SDS011;48839;48.546;-4.178;2023-05-14T02:52:45;19.90;;;11.73;;
62796;SDS011;48839;48.546;-4.178;2023-05-14T02:55:11;23.90;;;12.75;;
62796;SDS011;48839;48.546;-4.178;2023-05-14T02:57:37;23.50;;;13.10;;
62796;SDS011;48839;48.546;-4.178;2023-05-14T03:00:03;25.80;;;12.73;;
62796;SDS011;48839;48.546;-4.178;2023-05-14T03:02:29;22.48;;;11.82;;
62796;SDS011;48839;48.546;-4.178;2023-05-14T03:04:55;21.75;;;11.27;;
62796;SDS011;48839;48.546;-4.178;2023-05-14T03:07:21;21.88;;;11.65;;
62796;SDS011;48839;48.546;-4.178;2023-05-14T03:09:47;21.30;;;12.38;;
62796;SDS011;48839;48.546;-4.178;2023-05-14T03:12:13;30.80;;;13.15;;
62796;SDS011;48839;48.546;-4.178;2023-05-14T03:14:39;32.08;;;13.88;;
62796;SDS011;48839;48.546;-4.178;2023-05-14T03:17:05;31.38;;;14.98;;
62796;SDS011;48839;48.546;-4.178;2023-05-14T03:19:31;24.10;;;13.05;;
62796;SDS011;48839;48.546;-4.178;2023-05-14T03:21:57;25.80;;;13.77;;
62796;SDS011;48839;48.546;-4.178;2023-05-14T03:24:24;27.55;;;14.75;;
62796;SDS011;48839;48.546;-4.178;2023-05-14T03:26:50;23.83;;;12.23;;
62796;SDS011;48839;48.546;-4.178;2023-05-14T03:29:16;20.15;;;10.75;;
62796;SDS011;48839;48.546;-4.178;2023-05-14T03:31:42;21.95;;;11.68;;
62796;SDS011;48839;48.546;-4.178;2023-05-14T03:34:08;19.55;;;10.40;;
62796;SDS011;48839;48.546;-4.178;2023-05-14T03:36:34;20.00;;;12.70;;
62796;SDS011;48839;48.546;-4.178;2023-05-14T03:39:01;15.23;;;9.35;;
62796;SDS011;48839;48.546;-4.178;2023-05-14T03:41:27;20.45;;;10.30;;
62796;SDS011;48839;48.546;-4.178;2023-05-14T03:43:53;18.25;;;10.90;;
62796;SDS011;48839;48.546;-4.178;2023-05-14T03:46:20;23.15;;;11.23;;
62796;SDS011;48839;48.546;-4.178;2023-05-14T03:48:45;30.27;;;15.52;;
62796;SDS011;48839;48.546;-4.178;2023-05-14T03:51:11;33.67;;;15.18;;
62796;SDS011;48839;48.546;-4.178;2023-05-14T03:53:38;26.65;;;12.43;;
62796;SDS011;48839;48.546;-4.178;2023-05-14T03:56:04;36.83;;;15.27;;
62796;SDS011;48839;48.546;-4.178;2023-05-14T03:58:30;48.00;;;18.42;;
62796;SDS011;48839;48.546;-4.178;2023-05-14T04:00:56;52.92;;;17.75;;
62796;SDS011;48839;48.546;-4.178;2023-05-14T04:03:22;61.13;;;19.77;;
62796;SDS011;48839;48.546;-4.178;2023-05-14T04:05:48;54.25;;;19.27;;
62796;SDS011;48839;48.546;-4.178;2023-05-14T04:08:14;66.70;;;20.23;;
62796;SDS011;48839;48.546;-4.178;2023-05-14T04:10:41;54.17;;;19.02;;
62796;SDS011;48839;48.546;-4.178;2023-05-14T04:13:07;72.07;;;20.25;;
62796;SDS011;48839;48.546;-4.178;2023-05-14T04:15:33;91.22;;;20.23;;
62796;SDS011;48839;48.546;-4.178;2023-05-14T04:18:03;84.32;;;20.73;;
62796;SDS011;48839;48.546;-4.178;2023-05-14T04:20:29;58.42;;;20.08;;
62796;SDS011;48839;48.546;-4.178;2023-05-14T04:22:55;63.72;;;19.67;;
62796;SDS011;48839;48.546;-4.178;2023-05-14T04:25:22;83.53;;;18.02;;
62796;SDS011;48839;48.546;-4.178;2023-05-14T04:27:48;65.35;;;18.67;;
62796;SDS011;48839;48.546;-4.178;2023-05-14T04:30:14;67.63;;;19.50;;
62796;SDS011;48839;48.546;-4.178;2023-05-14T04:32:40;71.32;;;20.85;;
62796;SDS011;48839;48.546;-4.178;2023-05-14T04:35:06;78.45;;;20.75;;
62796;SDS011;48839;48.546;-4.178;2023-05-14T04:37:36;67.97;;;19.33;;
62796;SDS011;48839;48.546;-4.178;2023-05-14T04:40:03;61.83;;;17.98;;
62796;SDS011;48839;48.546;-4.178;2023-05-14T04:42:29;63.35;;;17.95;;
62796;SDS011;48839;48.546;-4.178;2023-05-14T04:44:55;72.50;;;20.05;;
62796;SDS011;48839;48.546;-4.178;2023-05-14T04:47:22;63.17;;;18.20;;
62796;SDS011;48839;48.546;-4.178;2023-05-14T04:49:48;52.97;;;18.92;;
62796;SDS011;48839;48.546;-4.178;2023-05-14T04:52:14;56.50;;;18.55;;
62796;SDS011;48839;48.546;-4.178;2023-05-14T04:54:40;67.65;;;19.48;;
62796;SDS011;48839;48.546;-4.178;2023-05-14T04:57:06;69.43;;;19.77;;
62796;SDS011;48839;48.546;-4.178;2023-05-14T04:59:32;66.43;;;20.67;;
62796;SDS011;48839;48.546;-4.178;2023-05-14T05:01:58;60.40;;;18.90;;
62796;SDS011;48839;48.546;-4.178;2023-05-14T05:04:24;61.20;;;20.10;;
62796;SDS011;48839;48.546;-4.178;2023-05-14T05:06:51;54.60;;;19.48;;
62796;SDS011;48839;48.546;-4.178;2023-05-14T05:09:17;61.15;;;20.27;;
62796;SDS011;48839;48.546;-4.178;2023-05-14T05:11:43;61.28;;;21.17;;
62796;SDS011;48839;48.546;-4.178;2023-05-14T05:14:09;56.88;;;19.55;;
62796;SDS011;48839;48.546;-4.178;2023-05-14T05:16:35;62.38;;;20.65;;
62796;SDS011;48839;48.546;-4.178;2023-05-14T05:19:01;59.05;;;20.70;;
62796;SDS011;48839;48.546;-4.178;2023-05-14T05:21:27;58.30;;;18.42;;
62796;SDS011;48839;48.546;-4.178;2023-05-14T05:23:53;60.67;;;19.83;;
62796;SDS011;48839;48.546;-4.178;2023-05-14T05:26:19;62.78;;;19.42;;
62796;SDS011;48839;48.546;-4.178;2023-05-14T05:28:46;82.45;;;20.60;;
62796;SDS011;48839;48.546;-4.178;2023-05-14T05:31:12;60.67;;;19.10;;
62796;SDS011;48839;48.546;-4.178;2023-05-14T05:33:38;87.20;;;19.35;;
62796;SDS011;48839;48.546;-4.178;2023-05-14T05:36:04;80.35;;;19.80;;
62796;SDS011;48839;48.546;-4.178;2023-05-14T05:38:30;67.90;;;18.05;;
62796;SDS011;48839;48.546;-4.178;2023-05-14T05:40:56;63.50;;;18.40;;
62796;SDS011;48839;48.546;-4.178;2023-05-14T05:43:22;54.85;;;15.88;;
62796;SDS011;48839;48.546;-4.178;2023-05-14T05:45:48;55.67;;;15.95;;
62796;SDS011;48839;48.546;-4.178;2023-05-14T05:48:14;73.10;;;18.75;;
62796;SDS011;48839;48.546;-4.178;2023-05-14T05:50:40;53.10;;;15.10;;
62796;SDS011;48839;48.546;-4.178;2023-05-14T05:53:08;52.17;;;14.95;;
62796;SDS011;48839;48.546;-4.178;2023-05-14T05:55:34;57.40;;;14.88;;
62796;SDS011;48839;48.546;-4.178;2023-05-14T05:58:00;50.00;;;16.27;;
62796;SDS011;48839;48.546;-4.178;2023-05-14T06:00:26;59.55;;;13.90;;
62796;SDS011;48839;48.546;-4.178;2023-05-14T06:02:52;77.40;;;14.02;;
62796;SDS011;48839;48.546;-4.178;2023-05-14T06:05:20;55.92;;;14.90;;
62796;SDS011;48839;48.546;-4.178;2023-05-14T06:07:46;52.38;;;12.35;;
62796;SDS011;48839;48.546;-4.178;2023-05-14T06:10:12;51.70;;;13.52;;
62796;SDS011;48839;48.546;-4.178;2023-05-14T06:12:38;88.30;;;14.57;;
62796;SDS011;48839;48.546;-4.178;2023-05-14T06:15:04;56.67;;;14.52;;
62796;SDS011;48839;48.546;-4.178;2023-05-14T06:17:30;56.38;;;12.07;;
62796;SDS011;48839;48.546;-4.178;2023-05-14T06:19:56;52.78;;;12.65;;
62796;SDS011;48839;48.546;-4.178;2023-05-14T06:22:22;42.30;;;10.38;;
62796;SDS011;48839;48.546;-4.178;2023-05-14T06:24:48;44.90;;;11.25;;
62796;SDS011;48839;48.546;-4.178;2023-05-14T06:27:14;35.33;;;12.98;;
62796;SDS011;48839;48.546;-4.178;2023-05-14T06:29:40;30.95;;;11.68;;
62796;SDS011;48839;48.546;-4.178;2023-05-14T06:32:07;51.13;;;13.20;;
62796;SDS011;48839;48.546;-4.178;2023-05-14T06:34:33;54.53;;;14.48;;
62796;SDS011;48839;48.546;-4.178;2023-05-14T06:36:59;48.25;;;14.25;;
62796;SDS011;48839;48.546;-4.178;2023-05-14T06:39:27;40.70;;;13.93;;
62796;SDS011;48839;48.546;-4.178;2023-05-14T06:41:53;66.15;;;15.05;;
62796;SDS011;48839;48.546;-4.178;2023-05-14T06:44:19;34.55;;;13.68;;
62796;SDS011;48839;48.546;-4.178;2023-05-14T06:46:45;48.83;;;13.60;;
62796;SDS011;48839;48.546;-4.178;2023-05-14T06:49:11;48.95;;;13.55;;
62796;SDS011;48839;48.546;-4.178;2023-05-14T06:51:37;67.57;;;13.68;;
62796;SDS011;48839;48.546;-4.178;2023-05-14T06:54:04;54.75;;;16.42;;
62796;SDS011;48839;48.546;-4.178;2023-05-14T06:56:30;76.05;;;16.08;;
62796;SDS011;48839;48.546;-4.178;2023-05-14T06:58:56;94.72;;;16.55;;
62796;SDS011;48839;48.546;-4.178;2023-05-14T07:01:22;59.55;;;15.55;;
62796;SDS011;48839;48.546;-4.178;2023-05-14T07:03:48;72.93;;;15.15;;
62796;SDS011;48839;48.546;-4.178;2023-05-14T07:06:14;97.82;;;17.98;;
62796;SDS011;48839;48.546;-4.178;2023-05-14T07:08:41;65.50;;;16.23;;
62796;SDS011;48839;48.546;-4.178;2023-05-14T07:11:09;68.38;;;15.85;;
62796;SDS011;48839;48.546;-4.178;2023-05-14T07:13:35;47.00;;;14.77;;
62796;SDS011;48839;48.546;-4.178;2023-05-14T07:16:01;60.28;;;17.15;;
62796;SDS011;48839;48.546;-4.178;2023-05-14T07:18:27;72.88;;;16.65;;
62796;SDS011;48839;48.546;-4.178;2023-05-14T07:20:53;72.10;;;16.35;;
62796;SDS011;48839;48.546;-4.178;2023-05-14T07:23:19;74.85;;;17.45;;
62796;SDS011;48839;48.546;-4.178;2023-05-14T07:25:45;102.95;;;21.05;;
62796;SDS011;48839;48.546;-4.178;2023-05-14T07:28:11;87.47;;;18.70;;
62796;SDS011;48839;48.546;-4.178;2023-05-14T07:30:37;75.85;;;17.20;;
62796;SDS011;48839;48.546;-4.178;2023-05-14T07:33:04;78.13;;;17.67;;
62796;SDS011;48839;48.546;-4.178;2023-05-14T07:35:30;75.25;;;18.05;;
62796;SDS011;48839;48.546;-4.178;2023-05-14T07:37:56;72.63;;;16.85;;
62796;SDS011;48839;48.546;-4.178;2023-05-14T07:40:22;52.92;;;18.15;;
62796;SDS011;48839;48.546;-4.178;2023-05-14T07:42:49;53.55;;;18.27;;
62796;SDS011;48839;48.546;-4.178;2023-05-14T07:45:15;57.40;;;18.95;;
62796;SDS011;48839;48.546;-4.178;2023-05-14T07:47:41;56.17;;;19.33;;
62796;SDS011;48839;48.546;-4.178;2023-05-14T07:50:07;59.78;;;19.95;;
62796;SDS011;48839;48.546;-4.178;2023-05-14T07:52:33;50.45;;;18.02;;
62796;SDS011;48839;48.546;-4.178;2023-05-14T07:55:01;55.38;;;19.50;;
62796;SDS011;48839;48.546;-4.178;2023-05-14T07:57:27;55.10;;;21.33;;
62796;SDS011;48839;48.546;-4.178;2023-05-14T07:59:53;53.42;;;20.73;;
62796;SDS011;48839;48.546;-4.178;2023-05-14T08:02:19;58.20;;;20.77;;
62796;SDS011;48839;48.546;-4.178;2023-05-14T08:04:45;46.95;;;19.05;;
62796;SDS011;48839;48.546;-4.178;2023-05-14T08:07:11;49.97;;;19.08;;
62796;SDS011;48839;48.546;-4.178;2023-05-14T08:09:37;46.83;;;19.05;;
62796;SDS011;48839;48.546;-4.178;2023-05-14T08:12:04;49.20;;;20.77;;
62796;SDS011;48839;48.546;-4.178;2023-05-14T08:14:30;43.30;;;19.25;;
62796;SDS011;48839;48.546;-4.178;2023-05-14T08:16:56;50.40;;;21.23;;
62796;SDS011;48839;48.546;-4.178;2023-05-14T08:19:22;45.28;;;20.33;;
62796;SDS011;48839;48.546;-4.178;2023-05-14T08:21:48;55.10;;;22.65;;
62796;SDS011;48839;48.546;-4.178;2023-05-14T08:24:15;49.50;;;22.25;;
62796;SDS011;48839;48.546;-4.178;2023-05-14T08:26:41;48.45;;;22.10;;
62796;SDS011;48839;48.546;-4.178;2023-05-14T08:29:07;45.53;;;21.02;;
62796;SDS011;48839;48.546;-4.178;2023-05-14T08:31:33;42.65;;;21.02;;
62796;SDS011;48839;48.546;-4.178;2023-05-14T08:33:59;51.55;;;21.55;;
62796;SDS011;48839;48.546;-4.178;2023-05-14T08:36:25;42.08;;;21.90;;
62796;SDS011;48839;48.546;-4.178;2023-05-14T08:38:51;43.50;;;20.95;;
62796;SDS011;48839;48.546;-4.178;2023-05-14T08:41:17;43.75;;;20.30;;
62796;SDS011;48839;48.546;-4.178;2023-05-14T08:46:10;40.75;;;20.33;;
62796;SDS011;48839;48.546;-4.178;2023-05-14T08:48:38;34.67;;;19.08;;
62796;SDS011;48839;48.546;-4.178;2023-05-14T08:51:05;35.88;;;19.98;;
62796;SDS011;48839;48.546;-4.178;2023-05-14T08:53:31;34.42;;;18.20;;
62796;SDS011;48839;48.546;-4.178;2023-05-14T08:55:57;35.35;;;19.35;;
62796;SDS011;48839;48.546;-4.178;2023-05-14T08:58:26;33.17;;;18.63;;
62796;SDS011;48839;48.546;-4.178;2023-05-14T09:00:52;37.47;;;19.40;;
62796;SDS011;48839;48.546;-4.178;2023-05-14T09:03:19;32.92;;;17.88;;
62796;SDS011;48839;48.546;-4.178;2023-05-14T09:05:46;31.63;;;17.95;;
62796;SDS011;48839;48.546;-4.178;2023-05-14T09:08:13;32.10;;;18.65;;
62796;SDS011;48839;48.546;-4.178;2023-05-14T09:10:39;29.65;;;16.55;;
62796;SDS011;48839;48.546;-4.178;2023-05-14T09:13:05;33.50;;;16.70;;
62796;SDS011;48839;48.546;-4.178;2023-05-14T09:15:31;27.45;;;17.35;;
62796;SDS011;48839;48.546;-4.178;2023-05-14T09:17:58;25.50;;;16.08;;
62796;SDS011;48839;48.546;-4.178;2023-05-14T09:20:24;30.77;;;15.88;;
62796;SDS011;48839;48.546;-4.178;2023-05-14T09:22:52;27.45;;;15.13;;
62796;SDS011;48839;48.546;-4.178;2023-05-14T09:25:18;20.70;;;13.18;;
62796;SDS011;48839;48.546;-4.178;2023-05-14T09:27:45;21.83;;;13.43;;
62796;SDS011;48839;48.546;-4.178;2023-05-14T09:30:14;25.10;;;13.60;;
62796;SDS011;48839;48.546;-4.178;2023-05-14T09:32:41;23.85;;;14.93;;
62796;SDS011;48839;48.546;-4.178;2023-05-14T09:35:18;21.85;;;13.20;;
62796;SDS011;48839;48.546;-4.178;2023-05-14T09:37:48;20.23;;;12.82;;
62796;SDS011;48839;48.546;-4.178;2023-05-14T09:40:14;21.77;;;13.98;;
62796;SDS011;48839;48.546;-4.178;2023-05-14T09:42:40;20.67;;;13.75;;
62796;SDS011;48839;48.546;-4.178;2023-05-14T09:45:07;20.75;;;12.98;;
62796;SDS011;48839;48.546;-4.178;2023-05-14T09:47:33;25.05;;;14.32;;
62796;SDS011;48839;48.546;-4.178;2023-05-14T09:50:00;20.83;;;13.82;;
62796;SDS011;48839;48.546;-4.178;2023-05-14T09:52:26;25.55;;;14.27;;
62796;SDS011;48839;48.546;-4.178;2023-05-14T09:54:52;21.35;;;13.98;;
62796;SDS011;48839;48.546;-4.178;2023-05-14T09:57:18;22.48;;;13.70;;
62796;SDS011;48839;48.546;-4.178;2023-05-14T09:59:44;20.98;;;14.20;;
62796;SDS011;48839;48.546;-4.178;2023-05-14T10:02:14;25.08;;;14.35;;
62796;SDS011;48839;48.546;-4.178;2023-05-14T10:04:40;23.27;;;14.88;;
62796;SDS011;48839;48.546;-4.178;2023-05-14T10:07:07;22.92;;;13.65;;
62796;SDS011;48839;48.546;-4.178;2023-05-14T10:09:33;22.25;;;14.77;;
62796;SDS011;48839;48.546;-4.178;2023-05-14T10:12:00;22.95;;;14.45;;
62796;SDS011;48839;48.546;-4.178;2023-05-14T10:14:35;24.45;;;15.30;;
62796;SDS011;48839;48.546;-4.178;2023-05-14T10:17:03;23.67;;;14.52;;
62796;SDS011;48839;48.546;-4.178;2023-05-14T10:19:32;24.88;;;15.55;;
62796;SDS011;48839;48.546;-4.178;2023-05-14T10:22:05;23.80;;;14.48;;
62796;SDS011;48839;48.546;-4.178;2023-05-14T10:24:31;22.45;;;14.35;;
62796;SDS011;48839;48.546;-4.178;2023-05-14T10:26:58;19.95;;;12.77;;
62796;SDS011;48839;48.546;-4.178;2023-05-14T10:29:31;23.92;;;14.95;;
62796;SDS011;48839;48.546;-4.178;2023-05-14T10:31:58;22.88;;;14.25;;
62796;SDS011;48839;48.546;-4.178;2023-05-14T10:34:32;18.27;;;12.50;;
62796;SDS011;48839;48.546;-4.178;2023-05-14T10:36:59;19.35;;;12.70;;
62796;SDS011;48839;48.546;-4.178;2023-05-14T10:42:11;19.02;;;12.05;;
62796;SDS011;48839;48.546;-4.178;2023-05-14T10:44:40;20.88;;;13.98;;
62796;SDS011;48839;48.546;-4.178;2023-05-14T10:47:07;19.27;;;12.40;;
62796;SDS011;48839;48.546;-4.178;2023-05-14T10:49:33;19.88;;;12.55;;
62796;SDS011;48839;48.546;-4.178;2023-05-14T10:51:59;18.63;;;12.55;;
62796;SDS011;48839;48.546;-4.178;2023-05-14T10:54:26;19.63;;;12.65;;
62796;SDS011;48839;48.546;-4.178;2023-05-14T10:56:53;17.90;;;12.90;;
62796;SDS011;48839;48.546;-4.178;2023-05-14T10:59:19;15.63;;;11.93;;
62796;SDS011;48839;48.546;-4.178;2023-05-14T11:01:45;15.95;;;10.27;;
62796;SDS011;48839;48.546;-4.178;2023-05-14T11:04:17;15.18;;;10.73;;
62796;SDS011;48839;48.546;-4.178;2023-05-14T11:06:44;15.23;;;10.87;;
62796;SDS011;48839;48.546;-4.178;2023-05-14T11:09:14;16.83;;;11.30;;
62796;SDS011;48839;48.546;-4.178;2023-05-14T11:11:42;17.40;;;11.68;;
62796;SDS011;48839;48.546;-4.178;2023-05-14T11:14:08;15.55;;;10.63;;
62796;SDS011;48839;48.546;-4.178;2023-05-14T11:16:34;18.33;;;11.68;;
62796;SDS011;48839;48.546;-4.178;2023-05-14T11:19:02;14.63;;;9.73;;
62796;SDS011;48839;48.546;-4.178;2023-05-14T11:21:28;13.45;;;9.77;;
62796;SDS011;48839;48.546;-4.178;2023-05-14T11:23:56;17.17;;;11.13;;
62796;SDS011;48839;48.546;-4.178;2023-05-14T11:26:22;16.40;;;11.52;;
62796;SDS011;48839;48.546;-4.178;2023-05-14T11:28:48;17.52;;;11.45;;
62796;SDS011;48839;48.546;-4.178;2023-05-14T11:31:14;15.68;;;10.57;;
62796;SDS011;48839;48.546;-4.178;2023-05-14T11:33:40;15.88;;;11.90;;
62796;SDS011;48839;48.546;-4.178;2023-05-14T11:36:07;16.10;;;11.35;;
62796;SDS011;48839;48.546;-4.178;2023-05-14T11:38:35;18.10;;;12.25;;
62796;SDS011;48839;48.546;-4.178;2023-05-14T11:41:12;20.70;;;13.88;;
62796;SDS011;48839;48.546;-4.178;2023-05-14T11:43:39;18.38;;;13.88;;
62796;SDS011;48839;48.546;-4.178;2023-05-14T11:46:06;19.70;;;14.63;;
62796;SDS011;48839;48.546;-4.178;2023-05-14T11:48:32;18.38;;;12.90;;
62796;SDS011;48839;48.546;-4.178;2023-05-14T11:50:58;16.98;;;12.35;;
62796;SDS011;48839;48.546;-4.178;2023-05-14T11:53:25;18.73;;;13.10;;
62796;SDS011;48839;48.546;-4.178;2023-05-14T11:55:52;19.73;;;14.70;;
62796;SDS011;48839;48.546;-4.178;2023-05-14T11:58:18;18.75;;;13.70;;
62796;SDS011;48839;48.546;-4.178;2023-05-14T12:00:44;20.77;;;14.32;;
62796;SDS011;48839;48.546;-4.178;2023-05-14T12:03:11;20.15;;;13.63;;
62796;SDS011;48839;48.546;-4.178;2023-05-14T12:05:37;21.45;;;14.02;;
62796;SDS011;48839;48.546;-4.178;2023-05-14T12:08:18;19.45;;;12.52;;
62796;SDS011;48839;48.546;-4.178;2023-05-14T12:10:44;16.70;;;11.95;;
62796;SDS011;48839;48.546;-4.178;2023-05-14T12:13:10;15.80;;;10.95;;
62796;SDS011;48839;48.546;-4.178;2023-05-14T12:15:42;13.80;;;10.50;;
62796;SDS011;48839;48.546;-4.178;2023-05-14T12:18:09;12.68;;;10.13;;
62796;SDS011;48839;48.546;-4.178;2023-05-14T12:20:35;13.05;;;10.57;;
62796;SDS011;48839;48.546;-4.178;2023-05-14T12:23:01;12.98;;;9.73;;
62796;SDS011;48839;48.546;-4.178;2023-05-14T12:25:27;13.13;;;10.10;;
62796;SDS011;48839;48.546;-4.178;2023-05-14T12:27:53;12.13;;;8.68;;
62796;SDS011;48839;48.546;-4.178;2023-05-14T12:30:19;10.18;;;8.20;;
62796;SDS011;48839;48.546;-4.178;2023-05-14T12:32:45;9.88;;;7.68;;
62796;SDS011;48839;48.546;-4.178;2023-05-14T12:35:15;10.80;;;8.18;;
62796;SDS011;48839;48.546;-4.178;2023-05-14T12:37:41;10.85;;;8.45;;
62796;SDS011;48839;48.546;-4.178;2023-05-14T12:40:07;11.27;;;8.50;;
62796;SDS011;48839;48.546;-4.178;2023-05-14T12:42:33;10.30;;;7.55;;
62796;SDS011;48839;48.546;-4.178;2023-05-14T12:45:00;8.43;;;6.90;;
62796;SDS011;48839;48.546;-4.178;2023-05-14T12:47:29;8.82;;;6.80;;
62796;SDS011;48839;48.546;-4.178;2023-05-14T12:49:56;9.82;;;5.85;;
62796;SDS011;48839;48.546;-4.178;2023-05-14T12:52:22;8.32;;;6.65;;
62796;SDS011;48839;48.546;-4.178;2023-05-14T12:54:48;8.02;;;6.63;;
62796;SDS011;48839;48.546;-4.178;2023-05-14T12:57:14;10.02;;;6.30;;
62796;SDS011;48839;48.546;-4.178;2023-05-14T12:59:40;8.73;;;7.53;;
62796;SDS011;48839;48.546;-4.178;2023-05-14T13:02:06;9.70;;;7.40;;
62796;SDS011;48839;48.546;-4.178;2023-05-14T13:04:32;9.00;;;7.15;;
62796;SDS011;48839;48.546;-4.178;2023-05-14T13:06:58;8.15;;;5.68;;
62796;SDS011;48839;48.546;-4.178;2023-05-14T13:09:24;5.72;;;5.13;;
62796;SDS011;48839;48.546;-4.178;2023-05-14T13:11:51;8.68;;;4.97;;
62796;SDS011;48839;48.546;-4.178;2023-05-14T13:14:17;5.72;;;4.40;;
62796;SDS011;48839;48.546;-4.178;2023-05-14T13:16:43;6.72;;;4.50;;
62796;SDS011;48839;48.546;-4.178;2023-05-14T13:19:10;4.13;;;3.50;;
62796;SDS011;48839;48.546;-4.178;2023-05-14T13:21:36;7.22;;;4.50;;
62796;SDS011;48839;48.546;-4.178;2023-05-14T13:24:02;5.35;;;4.82;;
62796;SDS011;48839;48.546;-4.178;2023-05-14T13:26:28;4.40;;;4.00;;
62796;SDS011;48839;48.546;-4.178;2023-05-14T13:28:54;8.80;;;6.32;;
62796;SDS011;48839;48.546;-4.178;2023-05-14T13:31:20;6.75;;;5.10;;
62796;SDS011;48839;48.546;-4.178;2023-05-14T13:33:46;7.43;;;5.35;;
62796;SDS011;48839;48.546;-4.178;2023-05-14T13:36:12;9.02;;;6.05;;
62796;SDS011;48839;48.546;-4.178;2023-05-14T13:38:38;8.45;;;6.80;;
62796;SDS011;48839;48.546;-4.178;2023-05-14T13:41:04;7.78;;;6.40;;
62796;SDS011;48839;48.546;-4.178;2023-05-14T13:43:31;9.57;;;7.30;;
62796;SDS011;48839;48.546;-4.178;2023-05-14T13:45:57;10.07;;;8.00;;
62796;SDS011;48839;48.546;-4.178;2023-05-14T13:48:24;11.15;;;7.28;;
62796;SDS011;48839;48.546;-4.178;2023-05-14T13:50:51;9.65;;;7.78;;
62796;SDS011;48839;48.546;-4.178;2023-05-14T13:53:20;8.45;;;6.57;;
62796;SDS011;48839;48.546;-4.178;2023-05-14T13:55:46;7.82;;;6.53;;
62796;SDS011;48839;48.546;-4.178;2023-05-14T13:58:12;8.70;;;6.38;;
62796;SDS011;48839;48.546;-4.178;2023-05-14T14:00:38;9.07;;;7.13;;
62796;SDS011;48839;48.546;-4.178;2023-05-14T14:03:05;10.90;;;6.53;;
62796;SDS011;48839;48.546;-4.178;2023-05-14T14:05:31;8.82;;;7.35;;
62796;SDS011;48839;48.546;-4.178;2023-05-14T14:07:57;7.95;;;6.55;;
62796;SDS011;48839;48.546;-4.178;2023-05-14T14:10:23;9.18;;;7.53;;
62796;SDS011;48839;48.546;-4.178;2023-05-14T14:12:50;7.40;;;6.13;;
62796;SDS011;48839;48.546;-4.178;2023-05-14T14:15:16;6.88;;;5.22;;
62796;SDS011;48839;48.546;-4.178;2023-05-14T14:17:42;6.53;;;5.32;;